createdAt,value
2018-07-22T00:01:01.976Z,2.80
2018-07-22T00:03:31.029Z,3.00
2018-07-22T00:05:59.866Z,2.73
2018-07-22T00:08:28.642Z,3.40
2018-07-22T00:10:57.607Z,3.23
2018-07-22T00:13:26.658Z,3.03
2018-07-22T00:15:55.534Z,3.33
2018-07-22T00:18:24.378Z,3.50
2018-07-22T00:20:53.419Z,3.40
2018-07-22T00:23:22.495Z,3.83
2018-07-22T00:25:51.309Z,3.10
2018-07-22T00:28:20.144Z,2.97
2018-07-22T00:30:48.964Z,3.27
2018-07-22T00:33:17.768Z,3.27
2018-07-22T00:35:46.557Z,3.40
2018-07-22T00:38:15.344Z,3.10
2018-07-22T00:40:44.158Z,3.23
2018-07-22T00:43:12.967Z,3.37
2018-07-22T00:45:41.782Z,3.60
2018-07-22T00:48:10.582Z,3.20
2018-07-22T00:50:39.415Z,3.53
2018-07-22T00:53:08.463Z,3.17
2018-07-22T00:55:37.233Z,3.57
2018-07-22T00:58:06.005Z,3.23
2018-07-22T01:00:34.870Z,3.90
2018-07-22T01:03:03.747Z,3.23
2018-07-22T01:05:32.540Z,3.53
2018-07-22T01:08:01.358Z,3.10
2018-07-22T01:10:30.168Z,3.27
2018-07-22T01:12:59.117Z,3.27
2018-07-22T01:15:27.944Z,3.13
2018-07-22T01:17:56.774Z,3.13
2018-07-22T01:20:25.700Z,3.57
2018-07-22T01:22:54.536Z,3.27
2018-07-22T01:25:23.395Z,3.20
2018-07-22T01:27:52.445Z,3.80
2018-07-22T01:30:21.272Z,3.40
2018-07-22T01:32:50.048Z,3.97
2018-07-22T01:35:18.836Z,3.40
2018-07-22T01:37:47.622Z,3.23
2018-07-22T01:40:16.431Z,3.80
2018-07-22T01:42:45.469Z,3.27
2018-07-22T01:45:14.240Z,3.10
2018-07-22T01:47:43.069Z,3.10
2018-07-22T01:50:11.899Z,3.03
2018-07-22T01:52:40.846Z,3.27
2018-07-22T01:55:09.656Z,2.90
2018-07-22T01:57:38.419Z,3.20
2018-07-22T02:00:07.252Z,3.37
2018-07-22T02:02:36.189Z,3.00
2018-07-22T02:05:05.374Z,3.03
2018-07-22T02:07:34.146Z,3.40
2018-07-22T02:10:02.899Z,3.20
2018-07-22T02:12:31.655Z,3.70
2018-07-22T02:15:00.433Z,3.73
2018-07-22T02:17:29.428Z,3.47
2018-07-22T02:19:58.202Z,3.53
2018-07-22T02:22:27.156Z,3.57
2018-07-22T02:24:55.942Z,3.43
2018-07-22T02:27:24.822Z,3.70
2018-07-22T02:29:53.601Z,3.50
2018-07-22T02:32:22.539Z,4.00
2018-07-22T02:34:51.349Z,3.50
2018-07-22T02:37:20.132Z,3.53
2018-07-22T02:39:48.920Z,3.77
2018-07-22T02:42:17.903Z,3.63
2018-07-22T02:44:46.710Z,3.20
2018-07-22T02:47:15.451Z,3.13
2018-07-22T02:49:44.280Z,3.50
2018-07-22T02:52:13.067Z,3.43
2018-07-22T02:54:41.891Z,4.00
2018-07-22T02:57:10.774Z,4.00
2018-07-22T02:59:39.624Z,3.87
2018-07-22T03:02:08.471Z,4.33
2018-07-22T03:04:37.256Z,4.00
2018-07-22T03:07:06.090Z,4.27
2018-07-22T03:09:34.823Z,4.20
2018-07-22T03:12:08.883Z,4.20
2018-07-22T03:14:37.705Z,3.83
2018-07-22T03:17:06.619Z,4.00
2018-07-22T03:19:35.429Z,4.60
2018-07-22T03:22:09.548Z,4.70
2018-07-22T03:24:38.341Z,4.50
2018-07-22T03:27:07.360Z,4.10
2018-07-22T03:29:36.246Z,3.77
2018-07-22T03:32:05.139Z,4.40
2018-07-22T03:34:33.928Z,4.10
2018-07-22T03:37:02.727Z,3.90
2018-07-22T03:39:31.506Z,4.70
2018-07-22T03:42:00.558Z,4.83
2018-07-22T03:44:29.384Z,5.70
2018-07-22T03:46:58.180Z,5.13
2018-07-22T03:49:26.999Z,5.20
2018-07-22T03:51:55.844Z,4.17
2018-07-22T03:54:24.639Z,4.60
2018-07-22T03:56:53.472Z,4.37
2018-07-22T03:59:22.470Z,4.83
2018-07-22T04:01:51.260Z,4.60
2018-07-22T04:04:20.107Z,5.10
2018-07-22T04:06:48.952Z,5.10
2018-07-22T04:09:17.784Z,5.30
2018-07-22T04:11:46.629Z,5.00
2018-07-22T04:14:15.469Z,4.70
2018-07-22T04:16:44.335Z,5.20
2018-07-22T04:19:13.131Z,6.03
2018-07-22T04:21:41.945Z,5.17
2018-07-22T04:24:10.767Z,5.00
2018-07-22T04:26:39.559Z,5.23
2018-07-22T04:29:08.418Z,4.70
2018-07-22T04:31:37.231Z,4.70
2018-07-22T04:34:06.274Z,5.07
2018-07-22T04:36:35.103Z,4.57
2018-07-22T04:39:05.684Z,4.93
2018-07-22T04:41:34.495Z,4.70
2018-07-22T04:44:03.500Z,5.87
2018-07-22T04:46:32.298Z,5.27
2018-07-22T04:49:01.090Z,5.20
2018-07-22T04:51:29.961Z,4.47
2018-07-22T04:53:58.775Z,4.83
2018-07-22T04:56:27.581Z,4.23
2018-07-22T04:58:57.348Z,4.60
2018-07-22T05:01:26.190Z,4.47
2018-07-22T05:03:55.012Z,4.57
2018-07-22T05:06:23.822Z,4.93
2018-07-22T05:08:52.630Z,5.67
2018-07-22T05:11:21.439Z,4.70
2018-07-22T05:13:50.488Z,5.17
2018-07-22T05:16:19.345Z,5.73
2018-07-22T05:18:48.147Z,5.30
2018-07-22T05:21:17.018Z,4.53
2018-07-22T05:23:46.091Z,5.10
2018-07-22T05:26:15.053Z,4.97
2018-07-22T05:28:43.884Z,4.83
2018-07-22T05:31:12.709Z,5.27
2018-07-22T05:33:41.846Z,4.63
2018-07-22T05:36:10.648Z,4.10
2018-07-22T05:38:39.484Z,4.90
2018-07-22T05:41:08.470Z,4.80
2018-07-22T05:43:37.293Z,4.63
2018-07-22T05:46:06.284Z,4.67
2018-07-22T05:48:35.155Z,5.00
2018-07-22T05:51:04.007Z,3.93
2018-07-22T05:53:34.062Z,4.23
2018-07-22T05:56:02.954Z,5.03
2018-07-22T05:58:31.790Z,5.10
2018-07-22T06:01:00.598Z,4.63
2018-07-22T06:03:29.835Z,4.97
2018-07-22T06:05:58.672Z,5.60
2018-07-22T06:08:27.468Z,5.37
2018-07-22T06:10:56.277Z,5.20
2018-07-22T06:13:25.383Z,6.23
2018-07-22T06:15:54.151Z,5.13
2018-07-22T06:18:22.950Z,5.20
2018-07-22T06:20:51.759Z,5.53
2018-07-22T06:23:20.634Z,5.47
2018-07-22T06:25:49.413Z,4.90
2018-07-22T06:28:18.197Z,4.83
2018-07-22T06:30:47.010Z,5.33
2018-07-22T06:33:15.826Z,4.87
2018-07-22T06:35:44.663Z,4.73
2018-07-22T06:38:13.489Z,4.60
2018-07-22T06:40:42.267Z,5.40
2018-07-22T06:43:11.102Z,5.03
2018-07-22T06:45:39.971Z,5.13
2018-07-22T06:48:08.792Z,4.00
2018-07-22T06:50:37.784Z,4.60
2018-07-22T06:53:06.820Z,4.40
2018-07-22T06:55:35.650Z,3.90
2018-07-22T06:58:04.557Z,4.63
2018-07-22T07:00:33.650Z,4.40
2018-07-22T07:03:02.789Z,4.53
2018-07-22T07:05:31.590Z,4.67
2018-07-22T07:08:00.451Z,5.17
2018-07-22T07:10:29.498Z,5.07
2018-07-22T07:12:58.319Z,4.93
2018-07-22T07:15:27.144Z,5.70
2018-07-22T07:17:56.000Z,5.03
2018-07-22T07:20:24.806Z,5.03
2018-07-22T07:22:53.765Z,5.03
2018-07-22T07:25:22.570Z,4.53
2018-07-22T07:27:51.354Z,4.77
2018-07-22T07:30:20.179Z,4.20
2018-07-22T07:32:49.141Z,4.30
2018-07-22T07:35:17.982Z,4.17
2018-07-22T07:37:46.789Z,5.23
2018-07-22T07:40:15.621Z,3.70
2018-07-22T07:42:44.470Z,3.83
2018-07-22T07:45:13.331Z,4.37
2018-07-22T07:47:42.204Z,4.00
2018-07-22T07:50:11.033Z,4.03
2018-07-22T07:52:39.773Z,3.70
2018-07-22T07:55:08.707Z,3.43
2018-07-22T07:57:37.991Z,3.53
2018-07-22T08:00:06.998Z,3.67
2018-07-22T08:02:35.849Z,3.40
2018-07-22T08:05:04.887Z,3.47
2018-07-22T08:07:33.825Z,3.60
2018-07-22T08:10:02.689Z,3.33
2018-07-22T08:12:31.793Z,3.70
2018-07-22T08:15:00.588Z,3.80
2018-07-22T08:17:29.414Z,3.70
2018-07-22T08:19:58.233Z,4.07
2018-07-22T08:22:32.075Z,3.80
2018-07-22T08:25:00.866Z,3.80
2018-07-22T08:27:29.705Z,3.40
2018-07-22T08:29:58.538Z,3.40
2018-07-22T08:32:27.418Z,3.30
2018-07-22T08:34:56.204Z,3.70
2018-07-22T08:37:25.080Z,3.93
2018-07-22T08:39:53.862Z,4.10
2018-07-22T08:42:22.687Z,6.10
2018-07-22T08:44:51.469Z,3.83
2018-07-22T08:47:20.339Z,4.00
2018-07-22T08:49:49.155Z,3.80
2018-07-22T08:52:18.143Z,4.00
2018-07-22T08:54:46.888Z,3.90
2018-07-22T08:57:15.697Z,4.10
2018-07-22T08:59:44.544Z,3.80
2018-07-22T09:02:13.460Z,4.30
2018-07-22T09:04:42.268Z,4.70
2018-07-22T09:07:11.104Z,3.97
2018-07-22T09:09:39.879Z,4.07
2018-07-22T09:12:08.800Z,4.10
2018-07-22T09:14:37.631Z,4.83
2018-07-22T09:17:06.487Z,4.20
2018-07-22T09:19:35.445Z,4.47
2018-07-22T09:22:04.275Z,4.60
2018-07-22T09:24:33.122Z,4.17
2018-07-22T09:27:01.977Z,4.63
2018-07-22T09:29:30.770Z,4.97
2018-07-22T09:31:59.847Z,5.10
2018-07-22T09:34:28.660Z,4.90
2018-07-22T09:36:57.492Z,5.13
2018-07-22T09:39:26.340Z,5.43
2018-07-22T09:41:55.269Z,4.20
2018-07-22T09:44:24.066Z,4.83
2018-07-22T09:46:52.886Z,4.30
2018-07-22T09:49:21.717Z,4.60
2018-07-22T09:51:50.592Z,3.93
2018-07-22T09:54:19.435Z,4.17
2018-07-22T09:56:48.243Z,4.20
2018-07-22T09:59:17.095Z,4.33
2018-07-22T10:01:45.971Z,4.90
2018-07-22T10:04:14.731Z,5.03
2018-07-22T10:06:43.623Z,4.47
2018-07-22T10:09:12.629Z,4.70
2018-07-22T10:11:41.439Z,4.70
2018-07-22T10:14:10.343Z,4.57
2018-07-22T10:16:39.278Z,5.30
2018-07-22T10:19:08.112Z,4.80
2018-07-22T10:21:36.991Z,4.50
2018-07-22T10:24:05.948Z,4.77
2018-07-22T10:26:34.718Z,4.77
2018-07-22T10:29:03.524Z,4.90
2018-07-22T10:31:32.428Z,4.50
2018-07-22T10:34:01.599Z,4.80
2018-07-22T10:36:30.442Z,5.00
2018-07-22T10:38:59.388Z,4.80
2018-07-22T10:41:28.195Z,4.67
2018-07-22T10:44:02.131Z,4.90
2018-07-22T10:46:30.948Z,4.50
2018-07-22T10:48:59.776Z,4.70
2018-07-22T10:51:28.607Z,5.10
2018-07-22T10:53:57.450Z,4.97
2018-07-22T10:56:26.310Z,5.00
2018-07-22T10:58:55.173Z,4.60
2018-07-22T11:01:24.046Z,5.20
2018-07-22T11:04:02.276Z,4.63
2018-07-22T11:06:31.219Z,4.30
2018-07-22T11:08:59.997Z,4.40
2018-07-22T11:11:28.861Z,4.90
2018-07-22T11:13:58.494Z,5.10
2018-07-22T11:16:27.303Z,4.37
2018-07-22T11:18:56.154Z,5.00
2018-07-22T11:21:25.027Z,4.70
2018-07-22T11:23:53.796Z,4.40
2018-07-22T11:26:22.613Z,4.67
2018-07-22T11:28:51.552Z,4.40
2018-07-22T11:31:20.333Z,4.80
2018-07-22T11:33:49.379Z,4.83
2018-07-22T11:36:18.226Z,4.40
2018-07-22T11:38:47.034Z,4.50
2018-07-22T11:41:15.826Z,4.40
2018-07-22T11:43:44.689Z,4.40
2018-07-22T11:46:13.543Z,4.47
2018-07-22T11:48:42.413Z,4.50
2018-07-22T11:51:11.215Z,4.30
2018-07-22T11:53:40.500Z,5.10
2018-07-22T11:56:09.351Z,4.70
2018-07-22T11:58:38.181Z,4.70
2018-07-22T12:01:07.010Z,5.03
2018-07-22T12:03:35.834Z,4.80
2018-07-22T12:06:04.706Z,4.83
2018-07-22T12:08:33.474Z,4.80
2018-07-22T12:11:02.291Z,4.77
2018-07-22T12:13:36.414Z,4.70
2018-07-22T12:16:05.245Z,4.27
2018-07-22T12:18:34.084Z,4.60
2018-07-22T12:21:02.959Z,4.27
2018-07-22T12:23:31.998Z,4.70
2018-07-22T12:26:00.840Z,4.40
2018-07-22T12:28:29.688Z,4.90
2018-07-22T12:30:58.482Z,5.17
2018-07-22T12:33:27.233Z,4.57
2018-07-22T12:35:56.090Z,4.57
2018-07-22T12:38:24.880Z,4.47
2018-07-22T12:40:53.679Z,4.80
2018-07-22T12:43:22.523Z,4.73
2018-07-22T12:45:51.400Z,4.87
2018-07-22T12:48:20.205Z,4.57
2018-07-22T12:50:49.054Z,4.53
2018-07-22T12:53:22.978Z,5.03
2018-07-22T12:55:51.834Z,4.67
2018-07-22T12:58:20.726Z,4.43
2018-07-22T13:00:49.547Z,4.63
2018-07-22T13:03:18.674Z,4.90
2018-07-22T13:05:47.546Z,4.83
2018-07-22T13:08:16.478Z,4.47
2018-07-22T13:10:45.459Z,4.90
2018-07-22T13:13:14.341Z,4.47
2018-07-22T13:15:43.259Z,4.70
2018-07-22T13:18:12.161Z,4.77
2018-07-22T13:20:40.968Z,4.90
2018-07-22T13:23:10.033Z,4.47
2018-07-22T13:25:38.987Z,4.67
2018-07-22T13:28:07.877Z,4.73
2018-07-22T13:30:36.650Z,4.60
2018-07-22T13:33:05.626Z,4.67
2018-07-22T13:35:34.448Z,4.50
2018-07-22T13:38:03.422Z,4.97
2018-07-22T13:40:32.224Z,4.53
2018-07-22T13:43:01.318Z,5.27
2018-07-22T13:45:30.152Z,4.67
2018-07-22T13:47:58.971Z,4.57
2018-07-22T13:50:27.794Z,5.03
2018-07-22T13:53:01.840Z,4.50
2018-07-22T13:55:30.629Z,4.30
2018-07-22T13:57:59.393Z,4.70
2018-07-22T14:00:28.261Z,5.23
2018-07-22T14:02:57.043Z,5.23
2018-07-22T14:05:25.829Z,4.67
2018-07-22T14:07:54.684Z,4.60
2018-07-22T14:10:23.507Z,5.50
2018-07-22T14:12:52.856Z,4.63
2018-07-22T14:15:21.658Z,4.67
2018-07-22T14:17:50.524Z,5.40
2018-07-22T14:20:19.313Z,4.63
2018-07-22T14:22:48.498Z,4.60
2018-07-22T14:25:17.371Z,4.57
2018-07-22T14:27:46.379Z,4.60
2018-07-22T14:30:15.101Z,4.87
2018-07-22T14:32:49.098Z,4.10
2018-07-22T14:35:17.915Z,4.80
2018-07-22T14:37:46.678Z,4.77
2018-07-22T14:40:15.567Z,4.10
2018-07-22T14:42:49.626Z,4.93
2018-07-22T14:45:18.438Z,4.50
2018-07-22T14:47:47.294Z,5.13
2018-07-22T14:50:16.146Z,4.13
2018-07-22T14:52:50.013Z,5.07
2018-07-22T14:55:18.886Z,4.70
2018-07-22T14:57:47.794Z,4.60
2018-07-22T15:00:16.600Z,4.47
2018-07-22T15:02:45.579Z,4.13
2018-07-22T15:05:14.400Z,4.30
2018-07-22T15:07:43.217Z,4.70
2018-07-22T15:10:12.019Z,4.37
2018-07-22T15:12:50.350Z,4.70
2018-07-22T15:15:19.162Z,4.43
2018-07-22T15:17:48.088Z,4.47
2018-07-22T15:20:16.954Z,4.77
2018-07-22T15:22:46.034Z,4.60
2018-07-22T15:25:14.895Z,4.40
2018-07-22T15:27:43.685Z,4.70
2018-07-22T15:30:12.500Z,4.67
2018-07-22T15:32:41.332Z,4.10
2018-07-22T15:35:10.139Z,4.40
2018-07-22T15:37:38.923Z,4.77
2018-07-22T15:40:07.746Z,4.27
2018-07-22T15:42:36.547Z,4.40
2018-07-22T15:45:05.654Z,4.23
2018-07-22T15:47:34.471Z,4.43
2018-07-22T15:50:03.259Z,4.30
2018-07-22T15:52:32.245Z,4.30
2018-07-22T15:55:01.129Z,5.27
2018-07-22T15:57:29.902Z,4.73
2018-07-22T15:59:58.723Z,4.50
2018-07-22T16:02:27.640Z,4.97
2018-07-22T16:04:56.443Z,4.63
2018-07-22T16:07:25.253Z,4.90
2018-07-22T16:09:54.066Z,6.10
2018-07-22T16:12:22.835Z,5.40
2018-07-22T16:14:51.671Z,4.90
2018-07-22T16:17:20.515Z,4.90
2018-07-22T16:19:49.342Z,4.73
2018-07-22T16:22:18.127Z,5.37
2018-07-22T16:24:46.971Z,4.57
2018-07-22T16:27:15.818Z,5.20
2018-07-22T16:29:44.672Z,4.67
2018-07-22T16:32:13.668Z,4.47
2018-07-22T16:34:42.512Z,4.77
2018-07-22T16:37:11.313Z,4.60
2018-07-22T16:39:40.111Z,4.30
2018-07-22T16:42:08.920Z,4.73
2018-07-22T16:44:37.716Z,4.63
2018-07-22T16:47:06.547Z,4.93
2018-07-22T16:49:35.610Z,5.10
2018-07-22T16:52:04.403Z,5.87
2018-07-22T16:54:33.651Z,8.07
2018-07-22T16:57:02.443Z,5.60
2018-07-22T16:59:31.259Z,4.70
2018-07-22T17:02:00.086Z,4.63
2018-07-22T17:04:29.043Z,4.83
2018-07-22T17:06:57.850Z,4.67
2018-07-22T17:09:26.673Z,5.83
2018-07-22T17:11:55.475Z,4.50
2018-07-22T17:14:24.264Z,5.30
2018-07-22T17:16:53.112Z,4.77
2018-07-22T17:19:21.876Z,5.53
2018-07-22T17:21:50.728Z,6.43
2018-07-22T17:24:19.817Z,4.97
2018-07-22T17:26:48.672Z,5.27
2018-07-22T17:29:17.500Z,4.67
2018-07-22T17:31:46.305Z,5.37
2018-07-22T17:34:15.449Z,4.63
2018-07-22T17:36:44.323Z,4.80
2018-07-22T17:39:13.176Z,4.30
2018-07-22T17:41:42.044Z,5.20
2018-07-22T17:44:10.866Z,5.40
2018-07-22T17:46:39.684Z,4.67
2018-07-22T17:49:08.454Z,4.57
2018-07-22T17:51:37.232Z,4.60
2018-07-22T17:54:06.156Z,4.87
2018-07-22T17:56:34.968Z,4.60
2018-07-22T17:59:03.749Z,4.93
2018-07-22T18:01:32.601Z,5.53
2018-07-22T18:04:01.365Z,5.10
2018-07-22T18:06:30.191Z,4.63
2018-07-22T18:08:59.019Z,4.60
2018-07-22T18:11:27.875Z,4.40
2018-07-22T18:13:56.656Z,4.60
2018-07-22T18:16:25.473Z,4.43
2018-07-22T18:18:54.296Z,5.23
2018-07-22T18:21:23.108Z,4.60
2018-07-22T18:23:51.944Z,5.13
2018-07-22T18:26:20.740Z,5.20
2018-07-22T18:28:49.651Z,5.77
2018-07-22T18:31:18.765Z,5.07
2018-07-22T18:33:47.536Z,6.10
2018-07-22T18:36:16.326Z,5.43
2018-07-22T18:38:45.166Z,5.77
2018-07-22T18:41:14.035Z,5.93
2018-07-22T18:43:42.999Z,5.57
2018-07-22T18:46:11.815Z,5.00
2018-07-22T18:48:40.674Z,5.20
2018-07-22T18:51:09.485Z,5.30
2018-07-22T18:53:38.570Z,5.10
2018-07-22T18:56:07.726Z,4.43
2018-07-22T18:58:36.525Z,5.30
2018-07-22T19:01:05.413Z,5.80
2018-07-22T19:03:34.544Z,6.50
2018-07-22T19:06:03.376Z,5.30
2018-07-22T19:08:32.166Z,6.30
2018-07-22T19:11:02.842Z,7.43
2018-07-22T19:13:31.699Z,6.37
2018-07-22T19:16:00.535Z,5.93
2018-07-22T19:18:29.313Z,5.90
2018-07-22T19:20:58.114Z,5.60
2018-07-22T19:23:26.959Z,5.60
2018-07-22T19:25:55.796Z,5.53
2018-07-22T19:28:24.626Z,5.33
2018-07-22T19:30:53.525Z,5.67
2018-07-22T19:33:27.659Z,6.33
2018-07-22T19:35:56.462Z,4.90
2018-07-22T19:38:25.317Z,4.93
2018-07-22T19:40:54.205Z,4.97
2018-07-22T19:43:28.226Z,5.60
2018-07-22T19:45:57.052Z,4.80
2018-07-22T19:48:25.874Z,5.37
2018-07-22T19:50:54.698Z,5.07
2018-07-22T19:53:23.523Z,4.80
2018-07-22T19:55:52.388Z,4.47
2018-07-22T19:58:21.177Z,4.77
2018-07-22T20:00:50.013Z,4.97
2018-07-22T20:03:18.935Z,5.33
2018-07-22T20:05:47.728Z,5.03
2018-07-22T20:08:16.533Z,4.80
2018-07-22T20:10:45.325Z,5.00
2018-07-22T20:13:14.311Z,5.13
2018-07-22T20:15:43.445Z,5.20
2018-07-22T20:18:12.243Z,5.47
2018-07-22T20:20:41.099Z,4.73
2018-07-22T20:23:09.961Z,4.80
2018-07-22T20:25:38.714Z,4.53
2018-07-22T20:28:07.495Z,4.83
2018-07-22T20:30:36.319Z,5.00
2018-07-22T20:33:05.134Z,5.37
2018-07-22T20:35:33.926Z,5.70
2018-07-22T20:38:02.792Z,5.43
2018-07-22T20:40:31.596Z,5.90
2018-07-22T20:43:00.398Z,5.23
2018-07-22T20:45:29.234Z,4.87
2018-07-22T20:47:58.002Z,4.83
2018-07-22T20:50:26.789Z,5.20
2018-07-22T20:52:55.700Z,4.67
2018-07-22T20:55:24.671Z,5.00
2018-07-22T20:57:53.603Z,4.73
2018-07-22T21:00:22.431Z,5.00
2018-07-22T21:02:51.375Z,5.10
2018-07-22T21:05:20.198Z,5.17
2018-07-22T21:07:49.022Z,4.50
2018-07-22T21:10:17.824Z,4.90
2018-07-22T21:12:57.595Z,4.73
2018-07-22T21:15:26.399Z,4.43
2018-07-22T21:17:55.219Z,4.70
2018-07-22T21:20:24.080Z,4.80
2018-07-22T21:22:53.198Z,4.63
2018-07-22T21:25:22.010Z,4.53
2018-07-22T21:27:50.805Z,4.57
2018-07-22T21:30:19.655Z,5.30
2018-07-22T21:32:53.705Z,7.10
2018-07-22T21:35:22.501Z,6.33
2018-07-22T21:37:51.298Z,6.33
2018-07-22T21:40:20.197Z,5.13
2018-07-22T21:42:49.016Z,5.30
2018-07-22T21:45:17.800Z,5.20
2018-07-22T21:47:46.690Z,4.70
2018-07-22T21:50:15.509Z,4.70
2018-07-22T21:52:44.319Z,4.50
2018-07-22T21:55:13.154Z,4.80
2018-07-22T21:57:41.995Z,4.73
2018-07-22T22:00:33.484Z,4.80
2018-07-22T22:03:03.633Z,4.80
2018-07-22T22:05:32.423Z,4.50
2018-07-22T22:08:01.234Z,5.20
2018-07-22T22:10:30.046Z,5.30
2018-07-22T22:12:59.222Z,5.33
2018-07-22T22:15:28.966Z,5.20
2018-07-22T22:17:58.849Z,5.17
2018-07-22T22:20:28.061Z,5.30
2018-07-22T22:22:57.038Z,7.00
2018-07-22T22:25:25.824Z,6.43
2018-07-22T22:27:54.635Z,5.83
2018-07-22T22:30:23.454Z,5.67
2018-07-22T22:32:52.259Z,5.33
2018-07-22T22:35:21.066Z,5.07
2018-07-22T22:37:49.858Z,5.40
2018-07-22T22:40:18.713Z,5.13
2018-07-22T22:42:47.806Z,5.07
2018-07-22T22:45:16.675Z,4.43
2018-07-22T22:47:45.598Z,4.83
2018-07-22T22:50:14.428Z,5.47
2018-07-22T22:52:52.733Z,5.00
2018-07-22T22:55:21.579Z,5.70
2018-07-22T22:58:01.460Z,5.17
2018-07-22T23:00:30.255Z,5.17
2018-07-22T23:02:59.223Z,4.93
2018-07-22T23:05:28.018Z,5.53
2018-07-22T23:07:56.789Z,5.30
2018-07-22T23:10:25.618Z,5.77
2018-07-22T23:12:59.521Z,5.80
2018-07-22T23:15:28.334Z,5.63
2018-07-22T23:17:57.114Z,5.73
2018-07-22T23:20:25.902Z,6.87
2018-07-22T23:22:54.986Z,5.63
2018-07-22T23:25:23.805Z,5.60
2018-07-22T23:27:52.963Z,5.23
2018-07-22T23:30:21.751Z,6.57
2018-07-22T23:32:50.563Z,6.13
2018-07-22T23:35:19.347Z,5.70
2018-07-22T23:37:48.143Z,5.90
2018-07-22T23:40:16.988Z,5.80
2018-07-22T23:42:45.910Z,5.53
2018-07-22T23:45:14.711Z,5.87
2018-07-22T23:47:43.513Z,5.27
2018-07-22T23:50:12.268Z,5.63
2018-07-22T23:52:41.233Z,5.50
2018-07-22T23:55:10.027Z,5.20
2018-07-22T23:57:38.819Z,5.53
